createdAt,value
2019-05-23T00:01:01.940Z,7.10
2019-05-23T00:06:12.725Z,6.90
2019-05-23T00:11:30.727Z,6.90
2019-05-23T00:16:40.528Z,6.90
2019-05-23T00:21:55.221Z,6.80
2019-05-23T00:27:02.924Z,6.70
2019-05-23T00:32:26.346Z,6.70
2019-05-23T00:37:31.964Z,6.60
2019-05-23T00:42:40.499Z,6.50
2019-05-23T00:48:00.203Z,6.40
2019-05-23T00:53:05.200Z,6.40
2019-05-23T00:58:09.855Z,6.30
2019-05-23T01:03:33.528Z,6.20
2019-05-23T01:08:48.786Z,6.30
2019-05-23T01:14:04.968Z,6.20
2019-05-23T01:19:20.620Z,6.20
2019-05-23T01:24:53.647Z,6.20
2019-05-23T01:29:59.511Z,6.10
2019-05-23T01:35:20.949Z,6.20
2019-05-23T01:40:16.543Z,6.30
2019-05-23T01:45:22.560Z,6.30
2019-05-23T01:50:41.934Z,6.30
2019-05-23T01:55:49.704Z,6.20
2019-05-23T02:00:54.572Z,6.00
2019-05-23T02:05:59.408Z,5.80
2019-05-23T02:11:11.607Z,5.60
2019-05-23T02:16:12.047Z,5.50
2019-05-23T02:21:30.282Z,5.40
2019-05-23T02:26:35.860Z,5.30
2019-05-23T02:31:40.239Z,5.20
2019-05-23T02:36:44.542Z,5.20
2019-05-23T02:42:02.004Z,5.20
2019-05-23T02:47:36.784Z,5.20
2019-05-23T02:52:46.572Z,5.00
2019-05-23T02:57:57.923Z,4.90
2019-05-23T03:03:09.169Z,4.80
2019-05-23T03:08:17.997Z,4.80
2019-05-23T03:13:26.637Z,4.80
2019-05-23T03:18:37.743Z,4.90
2019-05-23T03:23:43.594Z,4.80
2019-05-23T03:28:48.502Z,4.80
2019-05-23T03:34:12.557Z,4.80
2019-05-23T03:39:17.088Z,4.80
2019-05-23T03:44:21.982Z,4.70
2019-05-23T03:49:28.121Z,4.90
2019-05-23T03:54:39.980Z,5.10
2019-05-23T03:59:52.759Z,5.20
2019-05-23T04:05:00.465Z,5.30
2019-05-23T04:10:02.047Z,5.50
2019-05-23T04:15:15.111Z,5.60
2019-05-23T04:20:32.520Z,5.70
2019-05-23T04:25:32.416Z,5.70
2019-05-23T04:30:39.921Z,5.70
2019-05-23T04:35:51.300Z,5.90
2019-05-23T04:40:56.217Z,6.00
2019-05-23T04:46:01.092Z,6.30
2019-05-23T04:51:11.819Z,6.60
2019-05-23T04:56:23.369Z,6.90
2019-05-23T05:01:26.300Z,7.30
2019-05-23T05:06:40.214Z,7.60
2019-05-23T05:12:00.114Z,7.80
2019-05-23T05:17:23.858Z,8.00
2019-05-23T05:22:34.171Z,8.30
2019-05-23T05:27:42.804Z,8.40
2019-05-23T05:32:49.650Z,8.40
2019-05-23T05:38:03.358Z,8.30
2019-05-23T05:43:08.954Z,8.50
2019-05-23T05:49:33.625Z,8.80
2019-05-23T05:54:40.065Z,10.00
2019-05-23T06:00:02.963Z,13.80
2019-05-23T06:06:31.092Z,15.90
2019-05-23T06:11:58.854Z,19.00
2019-05-23T06:17:16.674Z,20.10
2019-05-23T06:22:28.572Z,20.80
2019-05-23T06:27:46.619Z,21.40
2019-05-23T06:33:44.780Z,22.40
2019-05-23T06:39:00.754Z,23.00
2019-05-23T06:44:27.325Z,22.80
2019-05-23T06:50:10.378Z,22.80
2019-05-23T06:55:22.442Z,22.30
2019-05-23T07:00:28.385Z,24.30
2019-05-23T07:05:35.749Z,24.80
2019-05-23T07:10:42.616Z,24.90
2019-05-23T07:15:47.503Z,25.30
2019-05-23T07:20:52.003Z,26.50
2019-05-23T07:25:56.833Z,25.30
2019-05-23T07:31:01.562Z,24.60
2019-05-23T07:36:06.283Z,25.00
2019-05-23T07:41:10.750Z,24.90
2019-05-23T07:46:16.207Z,24.40
2019-05-23T07:51:21.490Z,24.30
2019-05-23T07:56:28.621Z,24.20
2019-05-23T08:01:35.057Z,24.40
2019-05-23T08:06:39.913Z,24.60
2019-05-23T08:11:45.179Z,24.80
2019-05-23T08:16:50.012Z,25.20
2019-05-23T08:21:54.686Z,26.50
2019-05-23T08:26:59.241Z,24.30
2019-05-23T08:32:03.936Z,24.60
2019-05-23T08:37:09.000Z,25.40
2019-05-23T08:42:14.146Z,24.50
2019-05-23T08:47:19.197Z,24.00
2019-05-23T08:52:24.211Z,25.40
2019-05-23T08:57:29.587Z,25.60
2019-05-23T09:02:35.897Z,25.20
2019-05-23T09:07:41.624Z,24.60
2019-05-23T09:12:47.027Z,25.20
2019-05-23T09:17:53.898Z,25.30
2019-05-23T09:22:58.733Z,25.60
2019-05-23T09:28:04.458Z,25.90
2019-05-23T09:33:10.013Z,25.90
2019-05-23T09:38:15.139Z,24.80
2019-05-23T09:43:20.312Z,24.60
2019-05-23T09:48:25.173Z,24.10
2019-05-23T09:53:30.444Z,24.00
2019-05-23T09:58:35.386Z,24.50
2019-05-23T10:03:41.716Z,24.70
2019-05-23T10:08:46.511Z,23.50
2019-05-23T10:13:51.620Z,23.50
2019-05-23T10:18:56.400Z,23.60
2019-05-23T10:24:04.022Z,22.90
2019-05-23T10:29:08.888Z,22.30
2019-05-23T10:34:13.724Z,22.60
2019-05-23T10:39:21.108Z,22.50
2019-05-23T10:44:25.929Z,22.40
2019-05-23T10:49:30.767Z,22.30
2019-05-23T10:54:35.654Z,22.00
2019-05-23T10:59:40.491Z,21.40
2019-05-23T11:04:45.227Z,21.90
2019-05-23T11:09:49.883Z,21.50
2019-05-23T11:14:54.905Z,21.80
2019-05-23T11:19:59.851Z,22.00
2019-05-23T11:25:05.625Z,21.60
2019-05-23T11:30:13.389Z,21.50
2019-05-23T11:35:18.562Z,21.50
2019-05-23T11:40:23.161Z,22.00
2019-05-23T11:45:31.372Z,21.60
2019-05-23T11:50:36.305Z,21.70
2019-05-23T11:55:41.037Z,21.70
2019-05-23T12:01:20.199Z,22.00
2019-05-23T12:06:18.992Z,21.90
2019-05-23T12:11:24.061Z,21.80
2019-05-23T12:16:28.690Z,21.30
2019-05-23T12:21:33.149Z,21.60
2019-05-23T12:26:37.961Z,22.50
2019-05-23T12:31:42.614Z,22.10
2019-05-23T12:36:47.793Z,22.10
2019-05-23T12:41:52.371Z,21.60
2019-05-23T12:46:57.154Z,21.70
2019-05-23T12:52:03.117Z,21.50
2019-05-23T12:57:08.216Z,21.80
2019-05-23T13:02:17.269Z,22.10
2019-05-23T13:07:35.725Z,21.80
2019-05-23T13:12:29.665Z,22.10
2019-05-23T13:17:34.345Z,22.10
2019-05-23T13:22:39.217Z,22.50
2019-05-23T13:27:43.912Z,22.40
2019-05-23T13:32:48.610Z,22.30
2019-05-23T13:37:54.499Z,22.60
2019-05-23T13:42:59.381Z,22.10
2019-05-23T13:48:04.171Z,22.20
2019-05-23T13:53:09.951Z,21.90
2019-05-23T13:58:16.900Z,22.20
2019-05-23T14:03:21.883Z,21.90
2019-05-23T14:08:26.541Z,21.70
2019-05-23T14:13:33.911Z,21.70
2019-05-23T14:18:39.011Z,21.70
2019-05-23T14:23:43.690Z,21.60
2019-05-23T14:28:49.390Z,21.80
2019-05-23T14:34:18.689Z,21.80
2019-05-23T14:39:39.351Z,21.50
2019-05-23T14:44:44.289Z,22.10
2019-05-23T14:49:57.993Z,21.90
2019-05-23T14:55:10.256Z,22.00
2019-05-23T15:00:16.455Z,21.90
2019-05-23T15:05:21.623Z,21.90
2019-05-23T15:10:26.681Z,21.90
2019-05-23T15:15:31.825Z,21.60
2019-05-23T15:20:36.583Z,21.70
2019-05-23T15:25:41.298Z,21.60
2019-05-23T15:30:45.849Z,21.40
2019-05-23T15:35:50.435Z,21.50
2019-05-23T15:40:55.406Z,21.30
2019-05-23T15:46:00.915Z,21.20
2019-05-23T15:51:07.511Z,21.10
2019-05-23T15:56:28.244Z,21.20
2019-05-23T16:01:52.848Z,21.10
2019-05-23T16:06:58.210Z,21.20
2019-05-23T16:12:03.347Z,21.10
2019-05-23T16:17:09.713Z,20.90
2019-05-23T16:22:14.999Z,20.90
2019-05-23T16:27:21.560Z,20.80
2019-05-23T16:32:28.154Z,20.80
2019-05-23T16:37:32.988Z,20.50
2019-05-23T16:42:37.708Z,20.30
2019-05-23T16:47:43.102Z,20.50
2019-05-23T16:52:50.751Z,20.20
2019-05-23T16:58:00.740Z,20.40
2019-05-23T17:03:30.958Z,20.30
2019-05-23T17:09:00.864Z,20.20
2019-05-23T17:14:27.946Z,20.10
2019-05-23T17:19:41.875Z,20.00
2019-05-23T17:25:02.905Z,19.90
2019-05-23T17:30:27.978Z,19.70
2019-05-23T17:35:33.878Z,19.50
2019-05-23T17:40:39.225Z,19.30
2019-05-23T17:45:44.566Z,19.20
2019-05-23T17:50:50.127Z,19.10
2019-05-23T17:55:56.840Z,18.90
2019-05-23T18:01:02.585Z,18.70
2019-05-23T18:06:07.707Z,18.50
2019-05-23T18:11:13.125Z,18.30
2019-05-23T18:16:17.739Z,18.10
2019-05-23T18:21:22.800Z,18.00
2019-05-23T18:26:28.108Z,17.70
2019-05-23T18:31:34.707Z,17.50
2019-05-23T18:36:39.997Z,17.20
2019-05-23T18:41:44.834Z,16.90
2019-05-23T18:46:52.740Z,16.70
2019-05-23T18:51:58.253Z,16.50
2019-05-23T18:57:03.644Z,16.30
2019-05-23T19:02:08.549Z,16.10
2019-05-23T19:07:13.763Z,15.80
2019-05-23T19:12:18.647Z,15.60
2019-05-23T19:17:25.476Z,15.30
2019-05-23T19:22:30.939Z,15.00
2019-05-23T19:27:36.099Z,14.80
2019-05-23T19:32:41.311Z,14.60
2019-05-23T19:37:48.730Z,14.30
2019-05-23T19:42:53.882Z,14.20
2019-05-23T19:47:58.738Z,14.50
2019-05-23T19:53:03.524Z,14.40
2019-05-23T19:58:08.086Z,14.30
2019-05-23T20:03:13.531Z,14.20
2019-05-23T20:08:20.219Z,14.20
2019-05-23T20:13:24.814Z,14.10
2019-05-23T20:18:29.942Z,14.10
2019-05-23T20:23:34.498Z,14.30
2019-05-23T20:28:40.360Z,14.10
2019-05-23T20:33:45.165Z,14.10
2019-05-23T20:38:49.871Z,13.90
2019-05-23T20:43:54.933Z,13.70
2019-05-23T20:48:59.961Z,13.40
2019-05-23T20:54:04.825Z,13.20
2019-05-23T20:59:10.118Z,13.00
2019-05-23T21:04:15.213Z,12.90
2019-05-23T21:09:21.238Z,12.70
2019-05-23T21:14:26.179Z,12.60
2019-05-23T21:19:31.832Z,12.50
2019-05-23T21:24:37.192Z,12.30
2019-05-23T21:29:42.031Z,12.10
2019-05-23T21:34:46.810Z,11.90
2019-05-23T21:39:51.544Z,11.70
2019-05-23T21:44:56.440Z,11.50
2019-05-23T21:50:01.201Z,11.30
2019-05-23T21:55:07.597Z,11.20
2019-05-23T22:00:14.889Z,11.00
2019-05-23T22:05:19.953Z,10.90
2019-05-23T22:10:25.017Z,10.70
2019-05-23T22:15:38.493Z,10.60
2019-05-23T22:20:43.695Z,10.40
2019-05-23T22:25:48.529Z,10.30
2019-05-23T22:30:53.106Z,10.20
2019-05-23T22:36:00.359Z,10.20
2019-05-23T22:41:05.595Z,10.10
2019-05-23T22:46:10.532Z,9.90
2019-05-23T22:51:15.586Z,9.80
2019-05-23T22:56:21.511Z,9.80
2019-05-23T23:01:29.298Z,9.70
2019-05-23T23:06:37.673Z,9.60
2019-05-23T23:11:42.927Z,9.60
2019-05-23T23:16:47.615Z,9.60
2019-05-23T23:21:52.313Z,9.50
2019-05-23T23:26:57.207Z,9.40
2019-05-23T23:32:03.893Z,9.30
2019-05-23T23:37:08.432Z,9.30
2019-05-23T23:42:12.947Z,9.20
2019-05-23T23:47:35.202Z,9.10
2019-05-23T23:52:57.118Z,9.00
2019-05-23T23:58:01.229Z,8.90
